Time;durP1;ratioP1;P1;durP2;ratioP2;P2;SDS_P1;SDS_P2;PMS_P1;PMS_P2;Temp;Humidity;BMP_temperature;BMP_pressure;BME280_temperature;BME280_humidity;BME280_pressure;Samples;Min_cycle;Max_cycle;Signal;HPM_P1;HPM_P2
2022/07/27 00:01:05;;;;;;;;;;;;;;;28.20;39.17;100176.00;5076348;28;977;-38
2022/07/27 00:03:31;;;;;;;;;;;;;;;27.89;40.45;100174.69;5065623;28;1017;-39
2022/07/27 00:05:56;;;;;;;;;;;;;;;28.20;40.04;100177.88;5066499;28;985;-39
2022/07/27 00:08:22;;;;;;;;;;;;;;;28.02;39.05;100176.59;5057353;28;1191;-38
2022/07/27 00:10:48;;;;;;;;;;;;;;;27.61;41.41;100180.97;5071960;28;957;-39
2022/07/27 00:13:13;;;;;;;;;;;;;;;28.23;38.74;100181.00;5069034;28;945;-38
2022/07/27 00:15:38;;;;;;;;;;;;;;;28.00;39.67;100181.34;5062598;28;938;-38
2022/07/27 00:18:04;;;;;;;;;;;;;;;28.20;40.34;100188.69;5069889;28;1902;-38
2022/07/27 00:20:29;;;;;;;;;;;;;;;28.24;38.53;100181.84;5065162;28;1124;-38
2022/07/27 00:22:55;;;;;;;;;;;;;;;27.71;40.61;100176.03;5068277;28;849;-38
2022/07/27 00:25:20;;;;;;;;;;;;;;;28.26;38.82;100177.03;5068330;28;1016;-39
2022/07/27 00:27:45;;;;;;;;;;;;;;;28.01;39.11;100176.78;5074071;28;1132;-39
2022/07/27 00:30:11;;;;;;;;;;;;;;;28.02;40.68;100170.34;5068669;28;938;-39
2022/07/27 00:32:36;;;;;;;;;;;;;;;28.16;38.92;100179.31;5072986;28;1104;-39
2022/07/27 00:35:01;;;;;;;;;;;;;;;27.73;40.61;100181.25;5066889;28;1183;-39
2022/07/27 00:37:27;;;;;;;;;;;;;;;28.31;38.73;100168.34;5073519;28;1961;-38
2022/07/27 00:39:53;;;;;;;;;;;;;;;28.11;39.38;100164.53;5062370;28;966;-38
2022/07/27 00:42:25;;;;;;;;;;;;;;;27.93;41.24;100167.81;5063198;28;1024;-38
2022/07/27 00:44:50;;;;;;;;;;;;;;;28.27;38.58;100167.91;5056158;28;834;-39
2022/07/27 00:47:16;;;;;;;;;;;;;;;27.90;40.13;100162.81;5068697;28;953;-38
2022/07/27 00:49:41;;;;;;;;;;;;;;;28.24;39.37;100162.91;5069528;28;997;-39
2022/07/27 00:52:06;;;;;;;;;;;;;;;28.12;39.16;100159.97;5066898;28;1009;-39
2022/07/27 00:54:31;;;;;;;;;;;;;;;27.82;41.00;100160.28;5066781;28;1013;-39
2022/07/27 00:56:57;;;;;;;;;;;;;;;28.30;38.56;100156.66;5053068;28;1963;-39
2022/07/27 00:59:22;;;;;;;;;;;;;;;28.06;39.56;100158.91;5069474;28;888;-38
2022/07/27 01:01:48;;;;;;;;;;;;;;;28.17;39.98;100153.94;5061924;28;1091;-38
2022/07/27 01:04:14;;;;;;;;;;;;;;;28.13;39.43;100158.91;5065365;28;941;-38
2022/07/27 01:06:39;;;;;;;;;;;;;;;27.84;40.63;100159.03;5072438;28;1119;-38
2022/07/27 01:11:48;;;;;;;;;;;;;;;28.15;38.71;100161.41;5062369;28;842;-38
2022/07/27 01:14:14;;;;;;;;;;;;;;;27.91;40.87;100159.06;5068540;28;914;-38
2022/07/27 01:16:39;;;;;;;;;;;;;;;28.20;38.99;100148.97;5072233;28;1914;-39
2022/07/27 01:19:05;;;;;;;;;;;;;;;28.24;38.43;100155.59;5058151;28;1029;-39
2022/07/27 01:21:34;;;;;;;;;;;;;;;28.44;38.32;100149.44;5047470;28;1472;-38
2022/07/27 01:23:59;;;;;;;;;;;;;;;28.15;38.74;100146.03;5068302;28;934;-39
2022/07/27 01:26:24;;;;;;;;;;;;;;;27.84;40.75;100153.63;5063028;28;982;-39
2022/07/27 01:28:53;;;;;;;;;;;;;;;28.20;38.83;100151.66;5072607;28;1036;-39
2022/07/27 01:31:18;;;;;;;;;;;;;;;27.96;39.26;100156.59;5047812;28;1274;-38
2022/07/27 01:33:43;;;;;;;;;;;;;;;28.11;39.91;100159.13;5067253;28;977;-37
2022/07/27 01:36:09;;;;;;;;;;;;;;;28.25;37.89;100156.44;5068990;28;2007;-39
2022/07/27 01:38:34;;;;;;;;;;;;;;;28.40;38.11;100152.75;5071607;28;941;-39
2022/07/27 01:41:00;;;;;;;;;;;;;;;28.47;37.38;100146.34;5073531;28;1166;-39
2022/07/27 01:43:25;;;;;;;;;;;;;;;28.15;38.08;100147.91;5066990;28;1098;-38
2022/07/27 01:45:50;;;;;;;;;;;;;;;28.19;39.65;100149.16;5068665;28;1159;-38
2022/07/27 01:48:15;;;;;;;;;;;;;;;28.15;38.80;100151.44;5072426;28;1048;-38
2022/07/27 01:50:41;;;;;;;;;;;;;;;27.84;39.43;100147.41;5059258;28;942;-39
2022/07/27 01:53:06;;;;;;;;;;;;;;;28.32;37.27;100138.38;5077534;28;1065;-39
2022/07/27 01:55:35;;;;;;;;;;;;;;;28.13;38.27;100139.19;5070058;28;1053;-39
2022/07/27 01:58:02;;;;;;;;;;;;;;;27.84;40.39;100140.13;5073625;28;1898;-38
2022/07/27 02:00:28;;;;;;;;;;;;;;;28.15;38.42;100137.09;5068234;28;1060;-39
2022/07/27 02:02:53;;;;;;;;;;;;;;;27.85;39.24;100131.00;5066889;28;1172;-39
2022/07/27 02:05:18;;;;;;;;;;;;;;;28.32;37.81;100134.84;5073252;28;1020;-38
2022/07/27 02:07:43;;;;;;;;;;;;;;;28.16;37.93;100136.06;5071592;28;1021;-38
2022/07/27 02:10:09;;;;;;;;;;;;;;;27.66;40.10;100126.31;5068424;28;1109;-39
2022/07/27 02:12:34;;;;;;;;;;;;;;;28.21;37.79;100128.97;5051549;28;1045;-38
2022/07/27 02:15:00;;;;;;;;;;;;;;;27.93;38.75;100129.97;5077134;28;1016;-38
2022/07/27 02:17:26;;;;;;;;;;;;;;;28.13;38.87;100128.38;5067957;28;1975;-39
2022/07/27 02:19:51;;;;;;;;;;;;;;;28.08;38.14;100128.94;5067156;28;985;-38
2022/07/27 02:22:16;;;;;;;;;;;;;;;27.75;39.42;100135.94;5068301;28;988;-39
2022/07/27 02:24:41;;;;;;;;;;;;;;;28.22;37.77;100137.94;5072479;28;1032;-38
2022/07/27 02:27:07;;;;;;;;;;;;;;;27.89;38.14;100130.59;5071139;28;977;-38
2022/07/27 02:29:32;;;;;;;;;;;;;;;27.98;39.23;100134.75;5075778;28;1069;-38
2022/07/27 02:31:57;;;;;;;;;;;;;;;28.05;37.90;100132.91;5070711;28;973;-39
2022/07/27 02:34:23;;;;;;;;;;;;;;;27.71;39.04;100132.81;5064910;28;969;-38
2022/07/27 02:36:48;;;;;;;;;;;;;;;28.17;37.57;100126.91;5068023;28;2004;-39
2022/07/27 02:39:13;;;;;;;;;;;;;;;27.99;37.50;100128.34;5075650;28;1100;-39
2022/07/27 02:41:39;;;;;;;;;;;;;;;27.92;39.08;100136.41;5065156;28;997;-39
2022/07/27 02:44:04;;;;;;;;;;;;;;;28.11;37.54;100139.38;5072132;28;953;-38
2022/07/27 02:46:29;;;;;;;;;;;;;;;27.80;38.31;100146.13;5068146;28;949;-38
2022/07/27 02:48:54;;;;;;;;;;;;;;;27.96;35.21;100136.84;5069825;28;1359;-36
2022/07/27 02:51:20;;;;;;;;;;;;;;;27.71;35.27;100140.91;5069422;28;841;-36
2022/07/27 02:53:45;;;;;;;;;;;;;;;27.62;37.91;100140.25;5072599;28;1060;-36
2022/07/27 02:56:10;;;;;;;;;;;;;;;27.56;34.72;100140.22;5064735;28;1893;-36
2022/07/27 02:58:36;;;;;;;;;;;;;;;27.52;35.55;100139.78;5066481;28;994;-35
2022/07/27 03:01:01;;;;;;;;;;;;;;;27.55;36.76;100152.03;5073085;28;994;-34
2022/07/27 03:03:27;;;;;;;;;;;;;;;27.51;35.49;100146.19;5073585;28;1076;-36
2022/07/27 03:05:52;;;;;;;;;;;;;;;27.45;36.75;100145.13;5068146;28;1013;-36
2022/07/27 03:08:17;;;;;;;;;;;;;;;27.47;34.68;100143.09;5074017;28;969;-35
2022/07/27 03:10:43;;;;;;;;;;;;;;;27.41;35.44;100143.03;5065321;28;1286;-34
2022/07/27 03:13:08;;;;;;;;;;;;;;;27.52;36.15;100145.19;5070358;28;1163;-35
2022/07/27 03:15:33;;;;;;;;;;;;;;;27.53;35.26;100146.03;5064783;28;2012;-36
2022/07/27 03:17:59;;;;;;;;;;;;;;;27.48;36.45;100152.84;5073699;28;1917;-35
2022/07/27 03:20:24;;;;;;;;;;;;;;;27.81;34.44;100145.94;5065545;28;1018;-38
2022/07/27 03:22:49;;;;;;;;;;;;;;;27.65;34.91;100146.25;5075245;28;1092;-37
2022/07/27 03:25:15;;;;;;;;;;;;;;;27.29;36.09;100143.63;5069692;28;1531;-37
2022/07/27 03:27:40;;;;;;;;;;;;;;;27.41;37.11;100138.47;5073532;28;1020;-36
2022/07/27 03:30:06;;;;;;;;;;;;;;;27.28;35.54;100136.53;5074125;28;1190;-36
2022/07/27 03:32:31;;;;;;;;;;;;;;;27.10;36.89;100142.44;5064085;28;1052;-36
2022/07/27 03:34:56;;;;;;;;;;;;;;;27.58;34.72;100141.66;5069657;28;1277;-38
2022/07/27 03:37:21;;;;;;;;;;;;;;;27.55;35.22;100141.22;5075690;28;1980;-36
2022/07/27 03:39:47;;;;;;;;;;;;;;;27.60;36.01;100139.59;5070621;28;1160;-36
2022/07/27 03:42:12;;;;;;;;;;;;;;;27.57;34.95;100125.66;5064823;28;981;-37
2022/07/27 03:44:37;;;;;;;;;;;;;;;27.60;35.84;100126.09;5064754;28;1044;-37
2022/07/27 03:47:03;;;;;;;;;;;;;;;27.91;34.85;100134.72;5070345;28;2381;-36
2022/07/27 03:49:28;;;;;;;;;;;;;;;27.96;33.49;100137.66;5064693;28;973;-37
2022/07/27 03:51:53;;;;;;;;;;;;;;;28.08;32.82;100137.91;5068401;28;1219;-38
2022/07/27 03:54:19;;;;;;;;;;;;;;;28.14;33.52;100138.13;5069519;28;1258;-43
2022/07/27 03:56:44;;;;;;;;;;;;;;;28.11;34.01;100131.28;5073043;28;1969;-40
2022/07/27 03:59:09;;;;;;;;;;;;;;;27.37;36.79;100135.34;5067223;28;1303;-40
2022/07/27 04:01:35;;;;;;;;;;;;;;;27.55;34.68;100135.81;5070203;28;1224;-40
2022/07/27 04:04:00;;;;;;;;;;;;;;;27.28;35.70;100135.72;5068479;28;1290;-40
2022/07/27 04:06:25;;;;;;;;;;;;;;;27.81;35.04;100129.72;5067404;28;1465;-38
2022/07/27 04:08:51;;;;;;;;;;;;;;;27.72;34.31;100130.94;5070477;28;1303;-39
2022/07/27 04:11:16;;;;;;;;;;;;;;;27.50;35.59;100137.28;5065785;28;1156;-38
2022/07/27 04:13:42;;;;;;;;;;;;;;;27.99;33.96;100139.97;5069636;28;1267;-39
2022/07/27 04:16:07;;;;;;;;;;;;;;;27.62;33.03;100137.53;5062461;28;1914;-38
2022/07/27 04:18:32;;;;;;;;;;;;;;;27.19;36.64;100145.81;5063157;28;1283;-38
2022/07/27 04:21:00;;;;;;;;;;;;;;;27.54;36.50;100148.53;5062047;28;1112;-38
2022/07/27 04:23:26;;;;;;;;;;;;;;;27.56;36.37;100153.72;5068224;28;1190;-38
2022/07/27 04:25:51;;;;;;;;;;;;;;;27.29;37.70;100156.28;5061113;28;1140;-38
2022/07/27 04:28:16;;;;;;;;;;;;;;;27.78;36.10;100149.03;5062574;28;892;-39
2022/07/27 04:30:41;;;;;;;;;;;;;;;27.68;36.62;100162.94;5068429;28;1484;-38
2022/07/27 04:33:07;;;;;;;;;;;;;;;27.94;36.73;100158.69;5069176;28;968;-39
2022/07/27 04:35:32;;;;;;;;;;;;;;;27.38;38.42;100157.75;5066273;28;1244;-39
2022/07/27 04:37:57;;;;;;;;;;;;;;;27.32;36.53;100151.31;5067850;28;1883;-38
2022/07/27 04:40:23;;;;;;;;;;;;;;;27.06;38.50;100150.09;5060866;28;1173;-38
2022/07/27 04:42:48;;;;;;;;;;;;;;;27.74;36.19;100150.50;5065300;28;2405;-38
2022/07/27 04:45:13;;;;;;;;;;;;;;;27.54;36.45;100159.31;5064709;28;1513;-38
2022/07/27 04:47:39;;;;;;;;;;;;;;;27.73;36.51;100154.22;5057186;28;1260;-38
2022/07/27 04:50:04;;;;;;;;;;;;;;;27.34;39.26;100156.50;5069022;28;1156;-37
2022/07/27 04:52:29;;;;;;;;;;;;;;;27.40;37.24;100158.41;5066968;28;1378;-38
2022/07/27 04:54:55;;;;;;;;;;;;;;;27.06;38.40;100157.38;5071512;28;1033;-38
2022/07/27 04:57:21;;;;;;;;;;;;;;;27.70;36.05;100160.88;5069074;28;1969;-36
2022/07/27 04:59:47;;;;;;;;;;;;;;;27.66;36.33;100156.84;5060246;28;1147;-37
2022/07/27 05:02:12;;;;;;;;;;;;;;;27.86;36.46;100159.69;5068089;28;945;-37
2022/07/27 05:04:37;;;;;;;;;;;;;;;27.36;38.79;100160.66;5063036;28;1136;-38
2022/07/27 05:07:02;;;;;;;;;;;;;;;27.40;36.47;100155.72;5066430;28;965;-38
2022/07/27 05:09:28;;;;;;;;;;;;;;;27.31;37.31;100162.31;5064890;28;1547;-38
2022/07/27 05:11:54;;;;;;;;;;;;;;;27.83;35.49;100160.09;5069160;28;849;-37
2022/07/27 05:14:19;;;;;;;;;;;;;;;27.91;34.95;100160.94;5074272;28;938;-36
2022/07/27 05:16:44;;;;;;;;;;;;;;;27.94;35.19;100163.25;5063748;28;1914;-38
2022/07/27 05:19:11;;;;;;;;;;;;;;;27.25;37.47;100170.16;5062591;28;1080;-37
2022/07/27 05:21:36;;;;;;;;;;;;;;;27.43;36.31;100171.50;5061527;28;1180;-37
2022/07/27 05:24:01;;;;;;;;;;;;;;;27.39;36.52;100170.25;5065359;28;962;-37
2022/07/27 05:26:27;;;;;;;;;;;;;;;27.58;35.78;100175.94;5068849;28;1105;-37
2022/07/27 05:28:52;;;;;;;;;;;;;;;27.24;36.94;100173.88;5069240;28;1299;-36
2022/07/27 05:31:17;;;;;;;;;;;;;;;27.21;37.07;100173.47;5066569;28;1176;-37
2022/07/27 05:33:43;;;;;;;;;;;;;;;27.17;37.88;100174.88;5065600;28;1259;-36
2022/07/27 05:36:08;;;;;;;;;;;;;;;27.64;36.21;100175.16;5066717;28;1906;-37
2022/07/27 05:38:38;;;;;;;;;;;;;;;27.79;35.46;100182.31;5065357;28;1275;-37
2022/07/27 05:41:04;;;;;;;;;;;;;;;27.91;34.90;100185.28;5062074;28;1041;-37
2022/07/27 05:43:29;;;;;;;;;;;;;;;27.36;38.19;100184.97;5075554;28;922;-38
2022/07/27 05:45:54;;;;;;;;;;;;;;;27.50;35.91;100183.19;5068994;28;977;-38
2022/07/27 05:48:20;;;;;;;;;;;;;;;27.37;36.75;100181.25;5066139;28;1017;-39
2022/07/27 05:50:45;;;;;;;;;;;;;;;27.88;36.10;100189.19;5068770;28;1021;-37
2022/07/27 05:53:10;;;;;;;;;;;;;;;27.46;36.68;100181.09;5062288;28;1164;-38
2022/07/27 05:55:36;;;;;;;;;;;;;;;27.37;37.15;100178.56;5071579;28;1164;-38
2022/07/27 05:58:01;;;;;;;;;;;;;;;27.80;37.75;100184.81;5063547;28;1906;-38
2022/07/27 06:00:26;;;;;;;;;;;;;;;28.10;35.48;100181.81;5067426;28;1202;-38
2022/07/27 06:02:52;;;;;;;;;;;;;;;27.80;36.46;100175.88;5072841;28;1227;-38
2022/07/27 06:05:17;;;;;;;;;;;;;;;27.23;38.78;100172.22;5065240;28;1224;-38
2022/07/27 06:10:26;;;;;;;;;;;;;;;28.06;35.79;100177.00;5071174;28;1148;-38
2022/07/27 06:12:51;;;;;;;;;;;;;;;27.89;35.67;100179.22;5062581;28;829;-39
2022/07/27 06:15:18;;;;;;;;;;;;;;;26.99;40.10;100170.78;5066389;28;980;-39
2022/07/27 06:17:45;;;;;;;;;;;;;;;27.76;37.32;100167.31;5060849;28;1910;-39
2022/07/27 06:20:10;;;;;;;;;;;;;;;27.84;36.65;100169.84;5059483;28;1029;-38
2022/07/27 06:22:49;;;;;;;;;;;;;;;27.91;36.59;100169.06;5071533;28;1215;-38
2022/07/27 06:25:15;;;;;;;;;;;;;;;27.64;38.00;100164.34;5063470;28;879;-37
2022/07/27 06:27:40;;;;;;;;;;;;;;;27.74;38.15;100162.13;5071453;28;1188;-39
2022/07/27 06:30:06;;;;;;;;;;;;;;;27.09;40.03;100167.78;5068065;28;1199;-38
2022/07/27 06:32:31;;;;;;;;;;;;;;;27.55;38.84;100170.94;5066253;28;941;-37
2022/07/27 06:34:58;;;;;;;;;;;;;;;27.86;38.56;100175.09;5073155;28;1195;-37
2022/07/27 06:37:24;;;;;;;;;;;;;;;27.39;41.46;100181.06;5071773;28;1894;-39
2022/07/27 06:39:49;;;;;;;;;;;;;;;27.77;37.98;100169.00;5072660;28;1029;-37
2022/07/27 06:42:14;;;;;;;;;;;;;;;27.96;37.33;100170.09;5070624;28;1040;-38
2022/07/27 06:44:40;;;;;;;;;;;;;;;26.97;42.49;100168.28;5070489;28;997;-36
2022/07/27 06:47:06;;;;;;;;;;;;;;;27.69;37.99;100175.44;5076130;28;1226;-38
2022/07/27 06:49:31;;;;;;;;;;;;;;;27.77;37.31;100169.00;5067089;28;873;-37
2022/07/27 06:51:57;;;;;;;;;;;;;;;27.28;40.22;100168.94;5067088;28;1186;-37
2022/07/27 06:54:22;;;;;;;;;;;;;;;27.98;37.45;100170.75;5066746;28;1061;-37
2022/07/27 06:56:48;;;;;;;;;;;;;;;27.26;40.64;100171.81;5065223;28;1906;-37
2022/07/27 06:59:13;;;;;;;;;;;;;;;27.68;38.59;100168.34;5072258;28;980;-38
2022/07/27 07:01:38;;;;;;;;;;;;;;;28.22;36.68;100164.97;5065724;28;1168;-39
2022/07/27 07:04:03;;;;;;;;;;;;;;;27.24;40.70;100167.66;5071061;28;1123;-38
2022/07/27 07:06:29;;;;;;;;;;;;;;;27.83;38.14;100162.78;5074694;28;1236;-38
2022/07/27 07:08:54;;;;;;;;;;;;;;;27.15;40.92;100166.97;5071438;28;1185;-38
2022/07/27 07:11:19;;;;;;;;;;;;;;;27.54;38.56;100172.00;5072799;28;1219;-38
2022/07/27 07:13:45;;;;;;;;;;;;;;;27.31;38.53;100165.00;5064457;28;1319;-39
2022/07/27 07:16:10;;;;;;;;;;;;;;;27.34;39.69;100165.44;5060836;28;1964;-39
2022/07/27 07:18:35;;;;;;;;;;;;;;;27.16;38.42;100168.63;5076281;28;1007;-39
2022/07/27 07:21:01;;;;;;;;;;;;;;;27.25;38.80;100169.31;5063873;28;993;-39
2022/07/27 07:23:26;;;;;;;;;;;;;;;27.13;38.36;100169.88;5068937;28;1013;-39
2022/07/27 07:25:51;;;;;;;;;;;;;;;27.28;38.71;100171.63;5068666;28;1132;-39
2022/07/27 07:28:20;;;;;;;;;;;;;;;27.16;38.14;100171.34;5069352;28;1051;-37
2022/07/27 07:30:46;;;;;;;;;;;;;;;27.21;38.14;100166.19;5067837;28;1181;-39
2022/07/27 07:33:12;;;;;;;;;;;;;;;27.15;38.00;100169.69;5070313;28;1255;-37
2022/07/27 07:35:37;;;;;;;;;;;;;;;27.32;38.37;100172.91;5062647;28;1429;-38
2022/07/27 07:38:02;;;;;;;;;;;;;;;27.22;38.27;100169.72;5069675;28;1905;-37
2022/07/27 07:40:28;;;;;;;;;;;;;;;26.94;39.49;100168.69;5068541;28;1516;-38
2022/07/27 07:42:53;;;;;;;;;;;;;;;27.62;37.09;100175.38;5072923;28;1197;-37
2022/07/27 07:45:19;;;;;;;;;;;;;;;26.93;39.27;100171.56;5068656;28;957;-37
2022/07/27 07:47:44;;;;;;;;;;;;;;;27.82;36.80;100173.81;5070284;28;1047;-38
2022/07/27 07:50:09;;;;;;;;;;;;;;;26.50;41.77;100171.44;5067269;28;1303;-38
2022/07/27 07:52:35;;;;;;;;;;;;;;;27.41;37.99;100173.56;5076561;28;1311;-37
2022/07/27 07:55:00;;;;;;;;;;;;;;;26.85;38.81;100167.16;5073053;28;1199;-38
2022/07/27 07:57:25;;;;;;;;;;;;;;;27.13;38.81;100169.03;5068192;28;1902;-38
2022/07/27 07:59:51;;;;;;;;;;;;;;;27.25;37.93;100174.72;5067816;28;1120;-38
2022/07/27 08:02:16;;;;;;;;;;;;;;;26.72;40.13;100174.13;5068419;28;1374;-38
2022/07/27 08:04:41;;;;;;;;;;;;;;;27.73;36.80;100173.97;5073390;28;1004;-38
2022/07/27 08:07:07;;;;;;;;;;;;;;;26.55;41.31;100170.84;5067276;28;982;-37
2022/07/27 08:09:32;;;;;;;;;;;;;;;27.61;37.92;100170.16;5069736;28;1539;-38
2022/07/27 08:11:57;;;;;;;;;;;;;;;26.70;40.90;100168.06;5068704;28;1025;-37
2022/07/27 08:14:25;;;;;;;;;;;;;;;27.26;38.88;100177.22;5072258;28;936;-37
2022/07/27 08:16:50;;;;;;;;;;;;;;;26.95;38.97;100172.19;5065724;28;1910;-38
2022/07/27 08:19:15;;;;;;;;;;;;;;;26.94;39.71;100171.38;5068303;28;932;-38
2022/07/27 08:21:41;;;;;;;;;;;;;;;27.39;37.82;100173.78;5066224;28;1204;-38
2022/07/27 08:24:06;;;;;;;;;;;;;;;26.63;41.52;100170.72;5063665;28;1200;-38
2022/07/27 08:26:31;;;;;;;;;;;;;;;27.74;37.72;100174.81;5067595;28;1356;-38
2022/07/27 08:28:57;;;;;;;;;;;;;;;26.60;42.45;100179.19;5063738;28;1247;-39
2022/07/27 08:31:22;;;;;;;;;;;;;;;27.52;38.48;100180.28;5059834;28;1262;-38
2022/07/27 08:33:47;;;;;;;;;;;;;;;26.95;39.37;100174.91;5064903;28;1382;-38
2022/07/27 08:36:13;;;;;;;;;;;;;;;26.87;40.38;100174.03;5067291;28;1910;-37
2022/07/27 08:38:38;;;;;;;;;;;;;;;27.53;37.63;100181.13;5067033;28;895;-38
2022/07/27 08:41:03;;;;;;;;;;;;;;;26.49;42.06;100185.94;5075583;28;997;-37
2022/07/27 08:43:29;;;;;;;;;;;;;;;27.66;37.99;100188.47;5057373;28;946;-37
2022/07/27 08:45:55;;;;;;;;;;;;;;;26.56;40.69;100183.28;5051922;28;982;-38
2022/07/27 08:48:20;;;;;;;;;;;;;;;27.28;38.79;100185.13;5075535;28;961;-37
2022/07/27 08:50:47;;;;;;;;;;;;;;;27.17;38.83;100185.69;5063455;28;1153;-37
2022/07/27 08:53:12;;;;;;;;;;;;;;;27.15;39.73;100191.28;5058782;28;1215;-37
2022/07/27 08:55:38;;;;;;;;;;;;;;;27.71;37.05;100192.25;5066920;28;1394;-38
2022/07/27 08:58:04;;;;;;;;;;;;;;;26.55;42.72;100186.19;5072278;28;1886;-37
2022/07/27 09:00:29;;;;;;;;;;;;;;;27.57;38.18;100185.94;5059955;28;1247;-38
2022/07/27 09:02:55;;;;;;;;;;;;;;;26.84;39.57;100189.78;5062164;28;1231;-39
2022/07/27 09:05:21;;;;;;;;;;;;;;;27.55;38.73;100195.25;5068543;28;1499;-36
2022/07/27 09:07:47;;;;;;;;;;;;;;;27.36;38.57;100197.66;5066095;28;1036;-39
2022/07/27 09:10:27;;;;;;;;;;;;;;;26.65;41.94;100187.53;5051619;28;1196;-37
2022/07/27 09:12:52;;;;;;;;;;;;;;;27.96;37.97;100189.03;5071508;28;1009;-37
2022/07/27 09:15:17;;;;;;;;;;;;;;;26.61;42.91;100194.34;5050913;28;917;-37
2022/07/27 09:17:43;;;;;;;;;;;;;;;27.60;39.15;100192.78;5068732;28;1898;-37
2022/07/27 09:20:12;;;;;;;;;;;;;;;27.09;39.91;100197.47;5065235;28;992;-37
2022/07/27 09:22:38;;;;;;;;;;;;;;;26.46;43.51;100193.59;5074613;28;1156;-37
2022/07/27 09:25:03;;;;;;;;;;;;;;;27.84;39.08;100196.88;5067919;28;1095;-37
2022/07/27 09:27:29;;;;;;;;;;;;;;;26.73;40.76;100188.41;5062270;28;1207;-37
2022/07/27 09:30:00;;;;;;;;;;;;;;;27.15;39.85;100191.28;5066519;28;1234;-36
2022/07/27 09:32:25;;;;;;;;;;;;;;;27.28;39.48;100192.41;5069098;28;1009;-37
2022/07/27 09:34:50;;;;;;;;;;;;;;;27.08;40.08;100195.78;5054836;28;1167;-37
2022/07/27 09:37:21;;;;;;;;;;;;;;;27.66;38.03;100194.69;5066460;28;1897;-37
2022/07/27 09:39:47;;;;;;;;;;;;;;;26.81;41.85;100192.88;5069222;28;1124;-37
2022/07/27 09:42:15;;;;;;;;;;;;;;;27.82;38.87;100190.84;5069263;28;1033;-37
2022/07/27 09:44:40;;;;;;;;;;;;;;;26.73;42.42;100194.66;5061812;28;1178;-38
2022/07/27 09:47:22;;;;;;;;;;;;;;;27.71;38.75;100194.94;5072932;28;941;-36
2022/07/27 09:49:47;;;;;;;;;;;;;;;26.79;42.25;100193.06;5069222;28;974;-38
2022/07/27 09:52:20;;;;;;;;;;;;;;;27.45;39.52;100198.31;5070310;28;990;-38
2022/07/27 09:54:46;;;;;;;;;;;;;;;27.09;39.52;100200.19;5065264;28;1001;-37
2022/07/27 09:57:11;;;;;;;;;;;;;;;27.26;39.96;100204.22;5068426;28;1961;-37
2022/07/27 09:59:36;;;;;;;;;;;;;;;27.39;39.14;100203.47;5068873;28;1025;-37
2022/07/27 10:02:01;;;;;;;;;;;;;;;26.98;40.98;100198.81;5066778;28;1091;-37
2022/07/27 10:04:27;;;;;;;;;;;;;;;27.72;38.56;100199.34;5064835;28;1065;-38
2022/07/27 10:06:52;;;;;;;;;;;;;;;26.79;41.96;100201.16;5061670;28;1072;-37
2022/07/27 10:09:18;;;;;;;;;;;;;;;27.75;38.67;100190.84;5053543;28;1056;-36
2022/07/27 10:11:44;;;;;;;;;;;;;;;26.69;42.58;100195.25;5048296;28;1482;-37
2022/07/27 10:14:09;;;;;;;;;;;;;;;27.39;39.76;100195.38;5050387;28;1584;-36
2022/07/27 10:16:35;;;;;;;;;;;;;;;27.16;40.28;100200.22;5053234;28;1906;-37
2022/07/27 10:19:11;;;;;;;;;;;;;;;27.39;39.98;100203.47;5067219;28;1276;-37
2022/07/27 10:21:37;;;;;;;;;;;;;;;27.38;39.84;100192.88;5045909;28;1413;-38
2022/07/27 10:24:03;;;;;;;;;;;;;;;26.55;44.56;100203.22;5068663;28;1484;-39
2022/07/27 10:26:36;;;;;;;;;;;;;;;27.93;39.84;100197.53;5072509;28;1000;-37
2022/07/27 10:29:07;;;;;;;;;;;;;;;26.80;42.72;100191.19;5067972;28;949;-39
2022/07/27 10:31:34;;;;;;;;;;;;;;;27.49;40.75;100195.00;5076205;28;965;-36
2022/07/27 10:34:00;;;;;;;;;;;;;;;27.31;41.07;100195.53;5066808;28;1024;-37
2022/07/27 10:36:28;;;;;;;;;;;;;;;26.87;42.96;100194.78;5064872;28;1961;-38
2022/07/27 10:38:57;;;;;;;;;;;;;;;27.97;39.94;100197.97;5072748;28;899;-38
2022/07/27 10:41:26;;;;;;;;;;;;;;;26.76;44.13;100199.66;5075163;28;1093;-37
2022/07/27 10:44:09;;;;;;;;;;;;;;;27.33;37.25;100198.88;5070069;28;1497;-38
2022/07/27 10:46:36;;;;;;;;;;;;;;;26.73;42.21;100202.75;5070257;28;1224;-36
2022/07/27 10:49:15;;;;;;;;;;;;;;;27.61;38.87;100202.59;5056942;28;1414;-37
2022/07/27 10:51:40;;;;;;;;;;;;;;;26.98;40.96;100193.41;5062595;28;1132;-37
2022/07/27 10:54:25;;;;;;;;;;;;;;;27.67;38.07;100195.53;5072164;28;1531;-37
2022/07/27 10:56:51;;;;;;;;;;;;;;;26.84;39.94;100197.88;5066556;28;1964;-37
2022/07/27 10:59:35;;;;;;;;;;;;;;;27.19;39.10;100199.81;5066613;28;1025;-35
2022/07/27 11:02:01;;;;;;;;;;;;;;;27.17;39.11;100197.31;5060199;28;1172;-36
2022/07/27 11:04:26;;;;;;;;;;;;;;;27.56;38.85;100203.16;5072392;28;1350;-37
2022/07/27 11:06:55;;;;;;;;;;;;;;;27.69;38.34;100196.19;5074311;28;1216;-39
2022/07/27 11:09:20;;;;;;;;;;;;;;;26.99;40.05;100195.91;5066739;28;1319;-38
2022/07/27 11:11:47;;;;;;;;;;;;;;;28.03;38.32;100193.66;5069968;28;1591;-39
2022/07/27 11:14:12;;;;;;;;;;;;;;;26.88;43.14;100193.75;5063921;28;1128;-38
2022/07/27 11:16:38;;;;;;;;;;;;;;;27.96;39.29;100197.13;5052633;28;1894;-36
2022/07/27 11:19:04;;;;;;;;;;;;;;;27.53;39.40;100190.06;5061223;28;1135;-38
2022/07/27 11:21:36;;;;;;;;;;;;;;;27.30;40.20;100191.19;5067319;28;1084;-37
2022/07/27 11:24:04;;;;;;;;;;;;;;;28.11;37.76;100199.69;5064216;28;1116;-37
2022/07/27 11:26:30;;;;;;;;;;;;;;;27.16;42.35;100195.63;5066401;28;1025;-38
2022/07/27 11:28:55;;;;;;;;;;;;;;;28.10;38.22;100208.84;5073761;28;1239;-39
2022/07/27 11:31:21;;;;;;;;;;;;;;;27.23;41.41;100201.94;5071703;28;863;-38
2022/07/27 11:33:49;;;;;;;;;;;;;;;27.37;37.46;100200.16;5064646;28;1024;-38
2022/07/27 11:36:14;;;;;;;;;;;;;;;27.43;39.00;100186.88;5073306;28;1089;-37
2022/07/27 11:38:43;;;;;;;;;;;;;;;27.77;36.65;100192.47;5066047;28;1910;-38
2022/07/27 11:41:12;;;;;;;;;;;;;;;27.54;37.28;100190.91;5064514;28;1256;-38
2022/07/27 11:43:41;;;;;;;;;;;;;;;27.46;38.05;100192.72;5045406;28;1204;-38
2022/07/27 11:46:13;;;;;;;;;;;;;;;27.94;36.49;100195.69;5067141;28;1587;-37
2022/07/27 11:48:45;;;;;;;;;;;;;;;27.59;37.73;100191.13;5071076;28;1192;-38
2022/07/27 11:51:10;;;;;;;;;;;;;;;28.06;36.91;100196.75;5065662;28;1248;-36
2022/07/27 11:53:36;;;;;;;;;;;;;;;27.01;40.68;100193.00;5063460;28;1342;-37
2022/07/27 11:56:01;;;;;;;;;;;;;;;28.11;37.18;100194.28;5064792;28;1001;-39
2022/07/27 11:58:26;;;;;;;;;;;;;;;27.39;40.02;100195.38;5069366;28;1918;-38
2022/07/27 12:00:51;;;;;;;;;;;;;;;27.66;38.31;100185.78;5066800;28;1199;-38
2022/07/27 12:03:22;;;;;;;;;;;;;;;27.55;38.55;100179.88;5065428;28;1199;-38
2022/07/27 12:05:50;;;;;;;;;;;;;;;27.53;38.35;100173.84;5065123;28;1072;-39
2022/07/27 12:08:15;;;;;;;;;;;;;;;27.89;37.24;100185.47;5048262;28;1180;-39
2022/07/27 12:10:55;;;;;;;;;;;;;;;27.53;38.24;100189.25;5064449;28;1183;-39
2022/07/27 12:13:20;;;;;;;;;;;;;;;28.13;36.46;100180.56;5053826;28;1236;-40
2022/07/27 12:15:54;;;;;;;;;;;;;;;27.22;40.34;100175.13;5064195;28;1247;-37
2022/07/27 12:18:20;;;;;;;;;;;;;;;28.04;37.43;100173.69;5067565;28;1910;-38
2022/07/27 12:20:47;;;;;;;;;;;;;;;27.31;41.20;100173.13;5068452;28;1159;-38
2022/07/27 12:23:12;;;;;;;;;;;;;;;28.04;37.72;100168.25;5072381;28;965;-39
2022/07/27 12:25:38;;;;;;;;;;;;;;;27.36;38.99;100174.16;5073770;28;1160;-38
2022/07/27 12:28:08;;;;;;;;;;;;;;;27.66;38.46;100174.97;5064700;28;949;-39
2022/07/27 12:30:40;;;;;;;;;;;;;;;27.82;38.31;100173.81;5069713;28;1200;-38
2022/07/27 12:33:06;;;;;;;;;;;;;;;27.57;39.34;100177.84;5067324;28;1252;-37
2022/07/27 12:35:44;;;;;;;;;;;;;;;28.22;37.02;100171.22;5066467;28;1197;-38
2022/07/27 12:38:10;;;;;;;;;;;;;;;27.33;40.29;100169.16;5063707;28;1901;-40
2022/07/27 12:40:42;;;;;;;;;;;;;;;28.11;38.08;100163.72;5075150;28;1124;-37
2022/07/27 12:43:08;;;;;;;;;;;;;;;27.26;42.81;100165.59;5062162;28;1188;-38
2022/07/27 12:45:37;;;;;;;;;;;;;;;28.10;38.36;100172.84;5069318;28;1331;-40
2022/07/27 12:48:06;;;;;;;;;;;;;;;27.40;39.44;100169.22;5063182;28;1185;-40